Latest Weather Observations for Frankston

IDV60801

Issued at 2:42 am EDT Tuesday 10 December 2019 (issued every 10 minutes, with the page automatically refreshed every 10 minutes)

About weather observations | Map of weather stations | Latest weather observations for VIC | Other Formats
Station Details ID: 086371 Name: FRANKSTON AWS Lat: -38.15 Lon: 145.12 Height: 6.0 m
Data from the previous 72 hours. | See also: Recent months at Frankston
Date/Time
EDT
Temp
°C
App
Temp
°C
Dew
Point
°C
Rel
Hum
%
Delta-T
°C
Wind Press
QNH
hPa
Press
MSL
hPa
Rain since
9am
mm
Dir  Spd
km/h
Gust
km/h
Spd
kts
Gust
kts
10/02:30am - - - - - SE 7 13 4 7 - - -
10/02:00am - - - - - S 9 13 5 7 - - -
10/01:30am - - - - - WSW 32 37 17 20 - - -
10/01:00am - - - - - WSW 24 30 13 16 - - -
10/12:30am - - - - - WSW 20 26 11 14 - - -
10/12:00am - - - - - WSW 15 19 8 10 - - -
 
Date/Time
EDT
Temp
°C
App
Temp
°C
Dew
Point
°C
Rel
Hum
%
Delta-T
°C
Wind Press
QNH
hPa
Press
MSL
hPa
Rain since
9am
mm
Dir  Spd
km/h
Gust
km/h
Spd
kts
Gust
kts
09/11:30pm - - - - - WSW 13 17 7 9 - - -
09/11:00pm - - - - - SW 13 20 7 11 - - -
09/10:30pm - - - - - SW 26 37 14 20 - - -
09/10:00pm - - - - - SW 22 30 12 16 - - -
09/09:37pm - - - - - SW 32 43 17 23 - - -
09/09:30pm - - - - - WSW 37 48 20 26 - - -
09/09:00pm - - - - - WSW 37 44 20 24 - - -
09/08:30pm - - - - - WSW 32 41 17 22 - - -
09/08:08pm - - - - - SW 32 50 17 27 - - -
09/08:00pm - - - - - SW 39 52 21 28 - - -
09/07:35pm - - - - - WSW 44 63 24 34 - - -
09/07:30pm - - - - - WSW 52 63 28 34 - - -
09/07:00pm - - - - - SW 35 54 19 29 - - -
09/06:56pm - - - - - SSW 22 54 12 29 - - -
09/06:30pm - - - - - WSW 20 32 11 17 - - -
09/06:00pm - - - - - WSW 17 50 9 27 - - -
09/05:30pm - - - - - WSW 9 11 5 6 - - -
09/05:00pm - - - - - WSW 15 17 8 9 - - -
09/04:30pm - - - - - WSW 17 19 9 10 - - -
09/04:00pm - - - - - NW 6 9 3 5 - - -
09/03:30pm - - - - - NNE 9 11 5 6 - - -
09/03:00pm - - - - - N 7 11 4 6 - - -
09/02:30pm - - - - - N 6 11 3 6 - - -
09/02:00pm - - - - - NNE 13 17 7 9 - - -
09/01:30pm - - - - - NNE 15 19 8 10 - - -
09/01:00pm - - - - - NNE 19 24 10 13 - - -
09/12:30pm - - - - - NNE 15 19 8 10 - - -
09/12:00pm - - - - - N 19 24 10 13 - - -
09/11:30am - - - - - N 26 33 14 18 - - -
09/11:00am - - - - - N 20 26 11 14 - - -
09/10:30am - - - - - N 22 32 12 17 - - -
09/10:28am - - - - - N 19 32 10 17 - - -
09/10:00am - - - - - NE 6 11 3 6 - - -
09/09:30am - - - - - WSW 7 9 4 5 - - -
09/09:00am - - - - - N 6 11 3 6 - - -
09/08:30am - - - - - E 11 17 6 9 - - -
09/08:00am - - - - - E 11 15 6 8 - - -
09/07:30am - - - - - ESE 11 15 6 8 - - -
09/07:00am - - - - - ESE 11 15 6 8 - - -
09/06:30am - - - - - SE 13 19 7 10 - - -
09/06:00am - - - - - SE 11 17 6 9 - - -
09/05:30am - - - - - SE 15 17 8 9 - - -
09/05:00am - - - - - SE 15 19 8 10 - - -
09/04:30am - - - - - SE 11 13 6 7 - - -
09/04:00am - - - - - SE 13 17 7 9 - - -
09/03:30am - - - - - SE 15 19 8 10 - - -
09/03:00am - - - - - SE 15 19 8 10 - - -
09/02:30am - - - - - SE 17 22 9 12 - - -
09/02:00am - - - - - SE 17 22 9 12 - - -
09/01:30am - - - - - ESE 17 22 9 12 - - -
09/01:00am - - - - - SE 17 22 9 12 - - -
09/12:30am - - - - - SE 20 26 11 14 - - -
09/12:00am - - - - - ESE 20 28 11 15 - - -
 
Date/Time
EDT
Temp
°C
App
Temp
°C
Dew
Point
°C
Rel
Hum
%
Delta-T
°C
Wind Press
QNH
hPa
Press
MSL
hPa
Rain since
9am
mm
Dir  Spd
km/h
Gust
km/h
Spd
kts
Gust
kts
08/11:30pm - - - - - ESE 17 24 9 13 - - -
08/11:00pm - - - - - ESE 15 24 8 13 - - -
08/10:30pm - - - - - ESE 15 26 8 14 - - -
08/10:00pm - - - - - ESE 15 26 8 14 - - -
08/09:30pm - - - - - SE 15 26 8 14 - - -
08/09:00pm - - - - - SSE 15 22 8 12 - - -
08/08:30pm - - - - - SSE 15 22 8 12 - - -
08/08:00pm - - - - - SSE 15 28 8 15 - - -
08/07:30pm - - - - - SSE 17 28 9 15 - - -
08/07:00pm - - - - - SSE 19 30 10 16 - - -
08/06:30pm - - - - - SSE 15 24 8 13 - - -
08/06:00pm - - - - - SE 13 26 7 14 - - -
08/05:30pm - - - - - SE 15 24 8 13 - - -
08/05:00pm - - - - - SSE 15 26 8 14 - - -
08/04:30pm - - - - - SE 13 24 7 13 - - -
08/04:00pm - - - - - SE 13 22 7 12 - - -
08/03:30pm - - - - - WNW 13 19 7 10 - - -
08/03:00pm - - - - - WNW 17 19 9 10 - - -
08/02:30pm - - - - - W 22 32 12 17 - - -
08/02:00pm - - - - - W 22 28 12 15 - - -
08/01:30pm - - - - - W 24 28 13 15 - - -
08/01:00pm - - - - - W 19 26 10 14 - - -
08/12:30pm - - - - - W 17 20 9 11 - - -
08/12:00pm - - - - - W 13 19 7 10 - - -
08/11:30am - - - - - W 7 13 4 7 - - -
08/11:00am - - - - - WNW 9 13 5 7 - - -
08/10:30am - - - - - E 9 20 5 11 - - -
08/10:00am - - - - - SE 7 15 4 8 - - -
08/09:30am - - - - - ENE 7 13 4 7 - - -
08/09:00am - - - - - SSE 9 15 5 8 - - -
08/08:30am - - - - - SSE 11 17 6 9 - - -
08/08:00am - - - - - SSE 7 11 4 6 - - -
08/07:30am - - - - - SSE 7 11 4 6 - - -
08/07:00am - - - - - SE 2 7 1 4 - - -
08/06:30am - - - - - CALM 0 0 0 0 - - -
08/06:00am - - - - - SSE 7 9 4 5 - - -
08/05:30am - - - - - SE 6 9 3 5 - - -
08/05:00am - - - - - SSE 7 11 4 6 - - -
08/04:30am - - - - - SSE 7 9 4 5 - - -
08/04:00am - - - - - S 7 9 4 5 - - -
08/03:30am - - - - - SSE 7 9 4 5 - - -
08/03:00am - - - - - S 9 13 5 7 - - -
08/02:30am - - - - - SSW 9 11 5 6 - - -
08/02:00am - - - - - SSW 11 13 6 7 - - -
08/01:30am - - - - - SW 7 9 4 5 - - -
08/01:00am - - - - - SSW 7 9 4 5 - - -
08/12:30am - - - - - SSE 6 7 3 4 - - -
08/12:00am - - - - - SSE 6 7 3 4 - - -
 
Date/Time
EDT
Temp
°C
App
Temp
°C
Dew
Point
°C
Rel
Hum
%
Delta-T
°C
Wind Press
QNH
hPa
Press
MSL
hPa
Rain since
9am
mm
Dir  Spd
km/h
Gust
km/h
Spd
kts
Gust
kts
07/11:30pm - - - - - SSE 7 9 4 5 - - -
07/11:00pm - - - - - SSE 7 9 4 5 - - -
07/10:30pm - - - - - ESE 6 9 3 5 - - -
07/10:00pm - - - - - S 7 9 4 5 - - -
07/09:30pm - - - - - SE 7 11 4 6 - - -
07/09:00pm - - - - - SSE 9 13 5 7 - - -
07/08:30pm - - - - - SSE 11 19 6 10 - - -
07/08:00pm - - - - - SSW 11 19 6 10 - - -
07/07:30pm - - - - - SW 17 24 9 13 - - -
07/07:00pm - - - - - SSW 15 28 8 15 - - -
07/06:30pm - - - - - WSW 26 33 14 18 - - -
07/06:00pm - - - - - WSW 32 39 17 21 - - -
07/05:30pm - - - - - WSW 35 41 19 22 - - -
07/05:00pm - - - - - WSW 35 41 19 22 - - -
07/04:30pm - - - - - WSW 37 41 20 22 - - -
07/04:00pm - - - - - WSW 33 35 18 19 - - -
07/03:30pm - - - - - WSW 28 32 15 17 - - -
07/03:00pm - - - - - WSW 26 30 14 16 - - -
07/02:30pm - - - - - W 15 19 8 10 - - -
07/02:00pm - - - - - WNW 6 9 3 5 - - -
07/01:30pm - - - - - NNW 7 9 4 5 - - -
07/01:00pm - - - - - NW 9 11 5 6 - - -
07/12:30pm - - - - - WNW 11 13 6 7 - - -
07/12:00pm - - - - - W 11 15 6 8 - - -
07/11:30am - - - - - WSW 17 20 9 11 - - -
07/11:00am - - - - - W 17 22 9 12 - - -
07/10:30am - - - - - WNW 17 20 9 11 - - -
07/10:00am - - - - - WNW 19 26 10 14 - - -
07/09:30am - - - - - WNW 22 28 12 15 - - -
07/09:00am - - - - - WNW 24 30 13 16 - - -
07/08:30am - - - - - WNW 24 30 13 16 - - -
07/08:00am - - - - - WNW 28 32 15 17 - - -
07/07:30am - - - - - WNW 28 32 15 17 - - -
07/07:00am - - - - - WNW 26 32 14 17 - - -
07/06:30am - - - - - WNW 26 30 14 16 - - -
07/06:00am - - - - - W 28 32 15 17 - - -
07/05:30am - - - - - WNW 32 35 17 19 - - -
07/05:00am - - - - - W 32 39 17 21 - - -
07/04:30am - - - - - W 33 39 18 21 - - -
07/04:00am - - - - - W 32 37 17 20 - - -
07/03:30am - - - - - W 32 39 17 21 - - -
07/03:00am - - - - - W 32 37 17 20 - - -

Other formats

Comma delimited format used in spreadsheet applications
http://www.bom.gov.au/fwo/IDV60801/IDV60801.94871.axf

JavaScript Object Notation format (JSON) in row-major order
http://www.bom.gov.au/fwo/IDV60801/IDV60801.94871.json

Data quality

Most of these data are generated automatically and are frequently updated. Quality checks on data are not normally performed. It is possible for incorrect values to appear. Refer to information at About Latest Weather Observations and please check the disclaimer before using these data.